Latest Weather Observations for Bega

IDN60801

Issued at 12:43 pm EDT Thursday 21 March 2019 (issued every 10 minutes, with the page automatically refreshed every 10 minutes)

About weather observations | Map of weather stations | Latest weather observations for NSW | Other Formats
Station Details ID: 069139 Name: BEGA AWS Lat: -36.67 Lon: 149.82 Height: 41.0 m
Data from the previous 72 hours. | See also: Recent months at Bega
Date/Time
EDT
Temp
°C
App
Temp
°C
Dew
Point
°C
Rel
Hum
%
Delta-T
°C
Wind Press
QNH
hPa
Press
MSL
hPa
Rain since
9am
mm
Dir  Spd
km/h
Gust
km/h
Spd
kts
Gust
kts
21/12:30pm 25.4 27.1 20.2 73 3.4 E 11 15 6 8 1017.2 1017.1 0.0
21/12:00pm 24.5 26.6 18.0 67 4.1 ENE 4 11 2 6 1017.5 1017.4 0.0
21/11:30am 24.0 26.1 18.9 73 3.2 SSE 6 11 3 6 1017.6 1017.5 0.0
21/11:00am 22.9 24.9 18.7 77 2.7 E 6 11 3 6 1017.9 1017.8 0.0
21/10:30am 22.1 24.8 18.7 81 2.1 E 2 9 1 5 1017.9 1017.8 0.0
21/10:00am 20.9 23.1 19.2 90 1.1 ENE 6 9 3 5 1017.9 1017.8 0.0
21/09:30am 20.0 22.5 19.8 99 0.1 ENE 6 7 3 4 1017.8 1017.7 0.0
21/09:00am 19.2 22.5 19.2 100 0.0 CALM 0 6 0 3 1017.8 1017.7 0.2
21/08:30am 18.5 20.3 18.3 99 0.1 NE 6 7 3 4 1017.7 1017.6 0.2
21/08:00am 18.1 20.9 17.9 99 0.1 CALM 0 0 0 0 1017.5 1017.4 0.2
21/07:30am 17.9 20.6 17.7 99 0.1 CALM 0 0 0 0 1017.3 1017.2 0.2
21/07:00am 18.1 19.7 17.9 99 0.1 SW 6 7 3 4 1016.8 1016.6 0.2
21/06:30am 18.3 20.4 18.1 99 0.1 SW 4 6 2 3 1016.4 1016.2 0.2
21/06:00am 18.6 21.6 18.4 99 0.1 CALM 0 0 0 0 1016.1 1015.9 0.2
21/05:30am 18.6 20.4 18.4 99 0.1 ESE 6 7 3 4 1015.8 1015.6 0.2
21/05:00am 19.0 22.2 18.8 99 0.1 CALM 0 0 0 0 1015.4 1015.3 0.2
21/04:30am 19.1 22.3 18.9 99 0.1 CALM 0 0 0 0 1015.3 1015.2 0.2
21/04:00am 19.1 21.2 18.9 99 0.1 N 6 7 3 4 1015.3 1015.2 0.2
21/03:30am 19.3 22.6 19.1 99 0.1 CALM 0 0 0 0 1015.4 1015.3 0.2
21/03:00am 19.0 22.2 18.8 99 0.1 CALM 0 0 0 0 1015.5 1015.4 0.0
21/02:30am 19.0 22.2 18.8 99 0.1 CALM 0 0 0 0 1015.8 1015.6 0.0
21/02:00am 18.7 20.4 18.5 99 0.1 WNW 7 7 4 4 1016.0 1015.8 0.0
21/01:30am 18.5 21.4 18.3 99 0.1 CALM 0 0 0 0 1016.2 1016.0 0.0
21/01:00am 18.6 21.6 18.4 99 0.1 CALM 0 0 0 0 1016.3 1016.1 0.0
21/12:30am 17.6 20.2 17.4 99 0.1 CALM 0 0 0 0 1016.4 1016.2 0.0
21/12:00am 18.1 20.8 17.8 98 0.2 CALM 0 0 0 0 1016.3 1016.1 0.0
 
Date/Time
EDT
Temp
°C
App
Temp
°C
Dew
Point
°C
Rel
Hum
%
Delta-T
°C
Wind Press
QNH
hPa
Press
MSL
hPa
Rain since
9am
mm
Dir  Spd
km/h
Gust
km/h
Spd
kts
Gust
kts
20/11:30pm 18.6 21.5 18.1 97 0.3 CALM 0 0 0 0 1016.3 1016.1 0.0
20/11:00pm 18.8 21.7 18.3 97 0.3 CALM 0 0 0 0 1016.3 1016.1 0.0
20/10:30pm 19.0 21.9 18.3 96 0.4 CALM 0 0 0 0 1016.3 1016.1 0.0
20/10:00pm 19.3 20.9 18.3 94 0.6 WSW 7 9 4 5 1016.4 1016.2 0.0
20/09:30pm 20.0 22.7 18.7 92 0.8 W 2 6 1 3 1016.4 1016.2 0.0
20/09:00pm 20.3 22.3 18.8 91 0.9 WSW 6 7 3 4 1016.3 1016.1 0.0
20/08:30pm 20.5 22.5 18.8 90 1.1 SW 6 6 3 3 1016.1 1015.9 0.0
20/08:00pm 20.8 22.9 18.9 89 1.2 SSE 6 9 3 5 1015.8 1015.6 0.0
20/07:30pm 20.9 22.8 19.0 89 1.2 SE 7 11 4 6 1015.4 1015.3 0.0
20/07:00pm 21.3 22.8 18.9 86 1.5 SE 9 13 5 7 1015.1 1015.0 0.0
20/06:30pm 21.9 23.3 19.5 86 1.5 SE 11 15 6 8 1015.0 1014.9 0.0
20/06:00pm 21.8 21.8 19.0 84 1.8 SSE 17 24 9 13 1014.6 1014.5 0.0
20/05:30pm 22.1 22.4 19.6 86 1.6 SE 17 20 9 11 1014.4 1014.3 0.0
20/05:00pm 22.1 22.4 19.6 86 1.6 ESE 17 24 9 13 1014.1 1014.0 0.0
20/04:30pm 23.1 23.0 19.5 80 2.3 E 19 28 10 15 1014.0 1013.9 0.0
20/04:00pm 23.0 23.3 19.6 81 2.2 ESE 17 20 9 11 1014.0 1013.9 0.0
20/03:30pm 23.6 23.9 19.7 79 2.5 SE 17 22 9 12 1013.8 1013.7 0.0
20/03:00pm 23.8 23.7 19.9 79 2.5 ESE 20 28 11 15 1013.9 1013.8 0.0
20/02:30pm 25.2 24.4 20.0 73 3.4 ESE 24 32 13 17 1013.9 1013.8 0.0
20/02:00pm 25.6 25.7 20.4 73 3.4 SE 20 26 11 14 1014.0 1013.9 0.0
20/01:30pm 25.0 24.8 19.4 71 3.6 ESE 19 24 10 13 1014.2 1014.1 0.0
20/01:00pm 25.7 27.4 20.9 75 3.2 SSE 13 28 7 15 1014.4 1014.3 0.0
20/12:30pm 25.8 26.9 18.0 62 4.9 ESE 9 15 5 8 1014.7 1014.6 0.0
20/12:00pm 25.0 26.2 18.2 66 4.3 SSE 9 15 5 8 1015.0 1014.9 0.0
20/11:30am 24.4 26.1 18.6 70 3.7 S 7 13 4 7 1015.1 1015.0 0.0
20/11:00am 23.4 24.5 18.1 72 3.3 S 9 13 5 7 1015.4 1015.3 0.0
20/10:30am 22.5 26.0 19.5 83 1.9 CALM 0 2 0 1 1015.7 1015.5 0.0
20/10:00am 20.8 23.8 19.3 91 0.9 S 2 7 1 4 1015.7 1015.5 0.0
20/09:30am 20.0 23.5 19.5 97 0.3 CALM 0 0 0 0 1015.4 1015.3 0.0
20/09:00am 19.7 23.3 19.7 100 0.0 CALM 0 0 0 0 1015.3 1015.2 0.2
20/08:30am 18.4 21.4 18.4 100 0.0 CALM 0 0 0 0 1015.2 1015.1 0.2
20/08:00am 17.8 20.5 17.8 100 0.0 CALM 0 6 0 3 1015.1 1015.0 0.2
20/07:30am 17.7 20.3 17.5 99 0.1 CALM 0 0 0 0 1014.7 1014.6 0.2
20/07:00am 17.6 20.2 17.4 99 0.1 CALM 0 0 0 0 1014.6 1014.5 0.2
20/06:30am 17.4 19.9 17.2 99 0.1 CALM 0 0 0 0 1014.2 1014.1 0.2
20/06:00am 17.3 19.7 17.1 99 0.1 CALM 0 0 0 0 1013.9 1013.8 0.2
20/05:30am 17.6 20.2 17.4 99 0.1 CALM 0 0 0 0 1013.7 1013.6 0.2
20/05:00am 17.9 20.6 17.7 99 0.1 CALM 0 0 0 0 1013.6 1013.5 0.2
20/04:30am 17.7 20.3 17.5 99 0.1 CALM 0 0 0 0 1013.6 1013.5 0.2
20/04:00am 17.7 19.2 17.5 99 0.1 NE 6 7 3 4 1013.6 1013.5 0.2
20/03:30am 18.3 21.2 18.1 99 0.1 CALM 0 0 0 0 1013.7 1013.6 0.2
20/03:00am 18.4 21.3 18.2 99 0.1 CALM 0 0 0 0 1014.0 1013.9 0.2
20/02:30am 18.7 21.3 18.4 98 0.2 SW 2 7 1 4 1014.4 1014.3 0.2
20/02:00am 19.2 22.5 19.0 99 0.1 CALM 0 0 0 0 1014.7 1014.6 0.2
20/01:30am 19.2 22.5 19.0 99 0.1 CALM 0 0 0 0 1015.0 1014.9 0.2
20/01:00am 19.2 22.5 19.0 99 0.1 CALM 0 0 0 0 1014.9 1014.8 0.2
20/12:30am 19.2 22.5 19.0 99 0.1 CALM 0 0 0 0 1014.9 1014.8 0.2
20/12:00am 19.2 22.5 19.0 99 0.1 CALM 0 0 0 0 1015.2 1015.1 0.2
 
Date/Time
EDT
Temp
°C
App
Temp
°C
Dew
Point
°C
Rel
Hum
%
Delta-T
°C
Wind Press
QNH
hPa
Press
MSL
hPa
Rain since
9am
mm
Dir  Spd
km/h
Gust
km/h
Spd
kts
Gust
kts
19/11:30pm 19.0 22.1 18.7 98 0.2 CALM 0 0 0 0 1015.4 1015.3 0.2
19/11:00pm 19.1 22.3 18.8 98 0.2 CALM 0 0 0 0 1015.4 1015.3 0.2
19/10:30pm 19.4 22.5 18.7 96 0.4 CALM 0 0 0 0 1015.3 1015.2 0.2
19/10:00pm 19.9 22.3 18.9 94 0.6 SW 4 6 2 3 1015.4 1015.3 0.2
19/09:30pm 20.0 22.1 19.0 94 0.6 WNW 6 7 3 4 1015.4 1015.3 0.2
19/09:00pm 19.8 22.9 18.6 93 0.7 CALM 0 0 0 0 1015.3 1015.2 0.0
19/08:30pm 20.2 23.4 18.9 92 0.8 CALM 0 0 0 0 1015.1 1015.0 0.0
19/08:00pm 20.5 23.7 18.8 90 1.1 CALM 0 0 0 0 1014.7 1014.6 0.0
19/07:30pm 20.8 22.8 18.7 88 1.3 SSE 6 9 3 5 1014.5 1014.4 0.0
19/07:00pm 21.4 23.6 19.7 90 1.1 SE 7 11 4 6 1014.2 1014.1 0.0
19/06:30pm 22.1 23.5 19.5 85 1.7 ESE 11 15 6 8 1014.1 1014.0 0.0
19/06:00pm 22.7 23.8 19.7 83 1.9 SE 13 15 7 8 1013.8 1013.7 0.0
19/05:30pm 23.0 23.2 19.4 80 2.3 ESE 17 22 9 12 1013.7 1013.6 0.0
19/05:00pm 23.2 23.4 18.5 75 3.0 ESE 15 20 8 11 1013.6 1013.5 0.0
19/04:30pm 24.0 24.8 19.1 74 3.1 SE 13 19 7 10 1013.5 1013.4 0.0
19/04:00pm 25.3 26.3 21.0 77 2.8 SE 17 24 9 13 1013.5 1013.4 0.0
19/03:30pm 25.2 25.8 20.2 74 3.3 SE 17 26 9 14 1013.6 1013.5 0.0
19/03:00pm 25.7 25.6 20.0 71 3.7 ESE 20 30 11 16 1013.5 1013.4 0.0
19/02:30pm 25.1 25.6 19.2 70 3.8 ESE 15 20 8 11 1013.9 1013.8 0.0
19/02:00pm 24.5 24.8 19.6 74 3.2 SE 17 20 9 11 1014.2 1014.1 0.0
19/01:30pm 24.3 24.7 18.9 72 3.4 SE 15 22 8 12 1014.5 1014.4 0.0
19/01:00pm 24.3 25.5 19.8 76 2.9 SE 13 19 7 10 1014.9 1014.8 0.0
19/12:30pm 23.7 24.9 19.8 79 2.5 SE 13 19 7 10 1015.2 1015.1 0.0
19/12:00pm 23.3 24.9 19.9 81 2.2 ESE 11 17 6 9 1015.5 1015.4 0.0
19/11:30am 22.8 25.2 20.1 85 1.7 SSE 7 13 4 7 1015.8 1015.6 0.0
19/11:00am 22.2 24.5 19.9 87 1.5 SE 7 13 4 7 1016.0 1015.8 0.0
19/10:30am 21.0 23.6 20.0 94 0.6 WNW 6 9 3 5 1015.9 1015.7 0.0
19/10:00am 20.4 22.7 19.9 97 0.3 SE 7 9 4 5 1015.9 1015.7 0.0
19/09:30am 20.5 23.7 20.5 100 0.0 E 4 7 2 4 1015.5 1015.4 0.0
19/09:00am 19.7 22.9 19.7 100 0.0 ENE 2 6 1 3 1015.3 1015.2 6.6
19/08:30am 19.5 23.0 19.5 100 0.0 CALM 0 0 0 0 1015.1 1015.0 6.4
19/08:00am 18.3 21.2 18.1 99 0.1 CALM 0 0 0 0 1015.1 1015.0 6.4
19/07:30am 18.1 20.9 17.9 99 0.1 CALM 0 0 0 0 1014.8 1014.7 6.4
19/07:00am 18.5 20.3 18.3 99 0.1 S 6 7 3 4 1014.5 1014.4 6.4
19/06:30am 18.8 20.6 18.8 100 0.0 SW 7 9 4 5 1014.2 1014.1 6.4
19/06:00am 19.2 21.2 19.2 100 0.0 SSW 7 9 4 5 1014.0 1013.9 6.4
19/05:30am 19.7 22.1 19.7 100 0.0 W 6 7 3 4 1013.9 1013.8 6.4
19/05:00am 19.2 22.5 19.0 99 0.1 CALM 0 0 0 0 1013.8 1013.7 6.4
19/04:30am 19.2 22.5 19.0 99 0.1 CALM 0 0 0 0 1013.8 1013.7 6.4
19/04:00am 19.6 21.3 19.4 99 0.1 ENE 9 11 5 6 1014.0 1013.9 6.4
19/03:30am 19.5 21.7 19.5 100 0.0 W 7 11 4 6 1014.0 1013.9 6.4
19/03:00am 19.4 22.1 19.4 100 0.0 S 4 9 2 5 1014.2 1014.1 6.4
19/02:30am 19.0 21.4 18.8 99 0.1 NE 4 9 2 5 1014.5 1014.4 6.2
19/02:00am 19.0 22.2 18.8 99 0.1 CALM 0 0 0 0 1014.6 1014.5 6.2
19/01:30am 18.9 22.0 18.7 99 0.1 CALM 0 0 0 0 1014.6 1014.5 6.2
19/01:00am 19.3 22.6 19.0 98 0.2 CALM 0 0 0 0 1014.8 1014.7 6.2
19/12:30am 19.9 23.4 19.6 98 0.2 CALM 0 0 0 0 1014.9 1014.8 6.2
19/12:00am 19.7 23.0 19.2 97 0.3 CALM 0 0 0 0 1015.1 1015.0 6.2
 
Date/Time
EDT
Temp
°C
App
Temp
°C
Dew
Point
°C
Rel
Hum
%
Delta-T
°C
Wind Press
QNH
hPa
Press
MSL
hPa
Rain since
9am
mm
Dir  Spd
km/h
Gust
km/h
Spd
kts
Gust
kts
18/11:30pm 19.8 21.2 19.5 98 0.2 SW 11 13 6 7 1015.0 1014.9 6.2
18/11:00pm 19.9 23.5 19.7 99 0.1 CALM 0 0 0 0 1014.9 1014.8 6.2
18/10:30pm 20.2 23.9 19.9 98 0.2 CALM 0 0 0 0 1015.0 1014.9 6.2
18/10:00pm 20.4 24.2 20.2 99 0.1 CALM 0 0 0 0 1015.1 1015.0 6.2
18/09:30pm 20.4 24.2 20.2 99 0.1 CALM 0 0 0 0 1015.0 1014.9 6.2
18/09:00pm 20.5 24.4 20.3 99 0.1 CALM 0 0 0 0 1014.8 1014.7 6.2
18/08:30pm 20.6 24.4 20.1 97 0.3 CALM 0 0 0 0 1014.6 1014.5 6.0
18/08:00pm 20.5 23.1 20.0 97 0.3 NNW 6 7 3 4 1014.2 1014.1 6.0
18/07:30pm 20.5 23.0 19.8 96 0.4 NNW 6 7 3 4 1013.9 1013.8 6.0
18/07:00pm 20.7 23.3 20.0 96 0.4 N 6 7 3 4 1013.8 1013.7 6.0
18/06:30pm 21.2 24.5 20.0 93 0.8 ENE 2 7 1 4 1013.5 1013.4 6.0
18/06:00pm 21.2 23.5 19.8 92 0.9 S 7 11 4 6 1013.3 1013.2 6.0
18/05:30pm 22.8 23.6 19.0 79 2.4 SSE 13 17 7 9 1013.2 1013.1 6.0
18/05:00pm 23.5 24.7 19.8 80 2.4 SSW 13 17 7 9 1013.1 1013.0 6.0
18/04:30pm 23.4 25.2 20.3 83 2.0 SSE 11 15 6 8 1013.0 1012.9 5.8
18/04:00pm 22.9 24.4 19.7 82 2.1 SE 11 17 6 9 1013.1 1013.0 5.8
18/03:30pm 22.6 23.9 19.4 82 2.0 SSE 11 13 6 7 1013.1 1013.0 5.8
18/03:00pm 22.3 22.6 19.7 85 1.7 SSE 17 22 9 12 1013.3 1013.2 5.8
18/02:30pm 23.0 23.6 19.4 80 2.3 ESE 15 20 8 11 1013.6 1013.5 5.8
18/02:00pm 22.7 24.0 20.2 86 1.6 SE 13 15 7 8 1013.8 1013.7 5.8
18/01:30pm 22.8 25.1 20.7 88 1.4 SE 9 13 5 7 1013.7 1013.6 5.8
18/01:00pm 22.3 24.1 20.4 89 1.2 ESE 11 15 6 8 1013.5 1013.4 5.8

Other formats

Comma delimited format used in spreadsheet applications
http://www.bom.gov.au/fwo/IDN60801/IDN60801.95931.axf

JavaScript Object Notation format (JSON) in row-major order
http://www.bom.gov.au/fwo/IDN60801/IDN60801.95931.json

Data quality

Most of these data are generated automatically and are frequently updated. Quality checks on data are not normally performed. It is possible for incorrect values to appear. Refer to information at About Latest Weather Observations and please check the disclaimer before using these data.